Time;durP1;ratioP1;P1;durP2;ratioP2;P2;SDS_P1;SDS_P2;PMS_P1;PMS_P2;Temp;Humidity;BMP_temperature;BMP_pressure;BME280_temperature;BME280_humidity;BME280_pressure;Samples;Min_cycle;Max_cycle;Signal;HPM_P1;HPM_P2
2021/12/27 00:00:57;;;;;;;22.73;13.23;;;;;;;20.97;34.86;100837.81;2126345;27;20054;-68
2021/12/27 00:02:01;;;;;;;20.30;12.48;;;;;;;20.96;35.00;100831.53;2127170;27;20050;-69
2021/12/27 00:03:06;;;;;;;19.13;12.15;;;;;;;20.97;34.92;100837.81;2126273;27;20050;-68
2021/12/27 00:04:10;;;;;;;18.90;11.68;;;;;;;20.97;34.84;100843.31;2125636;27;20794;-69
2021/12/27 00:05:17;;;;;;;21.15;12.13;;;;;;;20.97;34.85;100837.81;2126638;27;20047;-68
2021/12/27 00:06:26;;;;;;;20.17;12.02;;;;;;;20.96;34.97;100841.69;2126847;27;20112;-69
2021/12/27 00:07:31;;;;;;;17.63;11.68;;;;;;;20.96;34.90;100847.19;2126463;27;20055;-69
2021/12/27 00:08:39;;;;;;;16.75;11.25;;;;;;;20.94;34.78;100839.34;2126691;27;20506;-69
2021/12/27 00:09:43;;;;;;;22.80;12.15;;;;;;;20.96;34.94;100841.69;2125676;27;20039;-70
2021/12/27 00:10:47;;;;;;;17.65;10.95;;;;;;;20.96;35.03;100848.03;2125107;27;20051;-69
2021/12/27 00:11:54;;;;;;;18.02;11.13;;;;;;;20.95;35.02;100840.91;2125802;27;20054;-69
2021/12/27 00:12:58;;;;;;;19.02;10.90;;;;;;;20.95;35.02;100851.91;2126407;27;20416;-69
2021/12/27 00:14:03;;;;;;;18.88;11.43;;;;;;;20.93;34.98;100847.91;2127049;27;20055;-68
2021/12/27 00:15:07;;;;;;;18.38;11.90;;;;;;;20.96;35.09;100848.03;2127066;27;20046;-68
2021/12/27 00:16:12;;;;;;;19.05;11.48;;;;;;;20.96;35.05;100849.94;2126360;27;20047;-67
2021/12/27 00:17:16;;;;;;;17.95;10.85;;;;;;;20.96;35.01;100844.44;2126238;27;20046;-69
2021/12/27 00:18:21;;;;;;;17.45;11.20;;;;;;;20.95;35.20;100851.09;2126832;27;20050;-69
2021/12/27 00:19:24;;;;;;;17.80;10.55;;;;;;;20.95;35.12;100848.38;2126156;27;20136;-69
2021/12/27 00:20:32;;;;;;;19.48;10.50;;;;;;;20.96;35.24;100842.53;2125568;27;20055;-70
2021/12/27 00:21:36;;;;;;;14.90;9.45;;;;;;;20.97;35.25;100851.56;2127331;27;20986;-72
2021/12/27 00:22:42;;;;;;;16.60;9.88;;;;;;;20.97;35.14;100843.31;2126190;27;20047;-72
2021/12/27 00:23:48;;;;;;;17.08;10.77;;;;;;;20.98;35.26;100847.66;2125923;27;20638;-70
2021/12/27 00:24:53;;;;;;;17.77;10.05;;;;;;;20.96;35.24;100838.97;2125953;27;20057;-70
2021/12/27 00:25:59;;;;;;;16.05;10.20;;;;;;;20.95;35.23;100840.91;2126835;27;20051;-70
2021/12/27 00:27:03;;;;;;;15.80;9.95;;;;;;;20.97;35.30;100835.06;2126398;27;20051;-71
2021/12/27 00:28:08;;;;;;;16.65;10.20;;;;;;;20.99;35.20;100847.28;2125610;27;20039;-70
2021/12/27 00:29:16;;;;;;;18.02;10.10;;;;;;;20.99;35.28;100836.31;2126248;27;20046;-71
2021/12/27 00:30:20;;;;;;;15.85;10.27;;;;;;;20.98;35.41;100844.91;2126667;27;20050;-71
2021/12/27 00:31:25;;;;;;;16.85;10.10;;;;;;;20.98;35.13;100845.69;2126336;27;20082;-72
2021/12/27 00:32:29;;;;;;;17.40;9.85;;;;;;;20.99;35.24;100851.97;2126663;27;20062;-70
2021/12/27 00:33:34;;;;;;;14.88;10.23;;;;;;;21.00;35.28;100853.56;2126808;27;20050;-70
2021/12/27 00:34:38;;;;;;;25.05;10.98;;;;;;;20.99;35.37;100857.47;2126041;27;20054;-70
2021/12/27 00:35:46;;;;;;;18.08;9.48;;;;;;;20.99;35.29;100855.53;2125358;27;20055;-70
2021/12/27 00:36:50;;;;;;;17.40;9.68;;;;;;;21.00;35.40;100859.06;2126048;27;20047;-71
2021/12/27 00:37:57;;;;;;;14.65;9.88;;;;;;;21.00;35.28;100859.06;2126343;27;20742;-71
2021/12/27 00:39:05;;;;;;;15.95;9.77;;;;;;;20.99;35.52;100851.97;2126302;27;20413;-71
2021/12/27 00:40:12;;;;;;;16.58;10.27;;;;;;;20.99;35.33;100857.47;2126108;27;20394;-70
2021/12/27 00:41:17;;;;;;;15.52;9.38;;;;;;;20.93;35.34;100850.66;2126884;27;20058;-70
2021/12/27 00:42:21;;;;;;;15.30;8.80;;;;;;;21.00;35.33;100859.06;2126587;27;20049;-70
2021/12/27 00:44:45;;;;;;;14.93;8.95;;;;;;;20.99;35.38;100851.97;2124105;27;20098;-71
2021/12/27 00:45:50;;;;;;;14.00;9.20;;;;;;;20.99;35.30;100863.78;2126039;27;20055;-71
2021/12/27 00:46:54;;;;;;;12.45;8.65;;;;;;;20.98;35.40;100858.63;2127049;27;20524;-66
2021/12/27 00:48:01;;;;;;;13.52;8.73;;;;;;;21.00;35.36;100853.56;2126149;27;20053;-67
2021/12/27 00:49:09;;;;;;;13.07;8.88;;;;;;;20.98;35.32;100855.88;2126051;27;20039;-68
2021/12/27 00:50:13;;;;;;;15.07;9.18;;;;;;;21.00;35.26;100854.38;2126347;27;20497;-68
2021/12/27 00:51:19;;;;;;;14.70;8.73;;;;;;;21.00;35.39;100850.84;2125869;27;20055;-68
2021/12/27 00:52:23;;;;;;;12.40;8.38;;;;;;;21.00;35.32;100859.06;2125728;27;20055;-68
2021/12/27 00:53:30;;;;;;;11.82;8.40;;;;;;;21.01;35.36;100857.91;2126821;27;20039;-68
2021/12/27 00:54:35;;;;;;;13.07;8.57;;;;;;;21.01;35.31;100855.16;2126898;27;20051;-67
2021/12/27 00:55:41;;;;;;;14.25;9.77;;;;;;;21.00;35.15;100848.09;2126587;27;20055;-68
2021/12/27 00:56:45;;;;;;;13.30;8.20;;;;;;;21.01;35.30;100855.94;2126572;27;20043;-69
2021/12/27 00:57:52;;;;;;;13.23;8.18;;;;;;;21.01;35.42;100858.69;2125679;27;20047;-69
2021/12/27 00:58:59;;;;;;;12.98;8.55;;;;;;;21.02;35.39;100859.47;2126495;27;20047;-69
2021/12/27 01:00:06;;;;;;;13.82;9.18;;;;;;;21.02;35.32;100859.47;2126168;27;20757;-69
2021/12/27 01:01:11;;;;;;;15.02;8.48;;;;;;;21.02;35.40;100856.75;2126085;27;20058;-69
2021/12/27 01:02:15;;;;;;;15.02;8.20;;;;;;;21.01;35.36;100855.94;2125524;27;20205;-69
2021/12/27 01:03:20;;;;;;;11.48;8.07;;;;;;;21.02;35.35;100864.97;2125930;27;20039;-68
2021/12/27 01:04:23;;;;;;;12.55;8.43;;;;;;;21.02;35.33;100867.72;2121307;27;20047;-69
2021/12/27 01:05:27;;;;;;;14.20;8.30;;;;;;;21.02;35.40;100862.22;2119881;27;20059;-70
2021/12/27 01:06:30;;;;;;;14.13;8.10;;;;;;;21.03;35.19;100869.34;2119439;27;20478;-67
2021/12/27 01:07:35;;;;;;;11.80;8.25;;;;;;;21.02;35.54;100868.53;2120094;27;20062;-72
2021/12/27 01:08:41;;;;;;;11.13;7.90;;;;;;;21.04;35.43;100865.41;2120102;27;20505;-71
2021/12/27 01:10:04;;;;;;;13.75;7.85;;;;;;;21.04;35.43;100868.97;2120573;27;20059;-69
2021/12/27 01:11:23;;;;;;;14.27;8.02;;;;;;;21.04;35.46;100868.97;2120148;27;20039;-70
2021/12/27 01:12:34;;;;;;;11.52;7.20;;;;;;;21.07;35.44;100870.19;2120441;27;20066;-72
2021/12/27 01:13:41;;;;;;;16.25;7.65;;;;;;;21.07;35.45;100869.41;2120685;27;20408;-72
2021/12/27 01:15:06;;;;;;;11.57;7.93;;;;;;;21.07;35.48;100870.19;2120849;27;20066;-66
2021/12/27 01:16:15;;;;;;;13.50;8.05;;;;;;;21.10;35.46;100866.72;2120448;27;20171;-67
2021/12/27 01:17:19;;;;;;;12.13;6.93;;;;;;;21.11;35.39;100871.03;2120603;27;20078;-68
2021/12/27 01:18:25;;;;;;;15.05;7.40;;;;;;;21.10;35.42;100863.97;2121223;27;20043;-69
2021/12/27 01:19:31;;;;;;;14.52;8.48;;;;;;;21.13;35.41;100865.19;2120917;27;20055;-68
2021/12/27 01:20:37;;;;;;;14.43;7.88;;;;;;;21.10;35.36;100863.97;2119821;27;20059;-69
2021/12/27 01:21:45;;;;;;;10.95;7.18;;;;;;;21.13;35.42;100867.94;2119755;27;20062;-68
2021/12/27 01:22:52;;;;;;;11.68;7.00;;;;;;;21.12;35.36;100867.16;2120308;27;20067;-71
2021/12/27 01:23:58;;;;;;;13.75;7.18;;;;;;;21.12;35.40;100867.16;2119835;27;20047;-70
2021/12/27 01:25:09;;;;;;;11.73;7.90;;;;;;;21.10;35.45;100863.19;2120232;27;20066;-69
2021/12/27 01:26:14;;;;;;;12.45;7.60;;;;;;;21.11;35.47;100865.56;2121003;27;20054;-69
2021/12/27 01:27:17;;;;;;;12.10;7.18;;;;;;;21.12;35.47;100866.34;2120228;27;20055;-68
2021/12/27 01:28:25;;;;;;;13.48;7.25;;;;;;;21.12;35.47;100861.66;2120149;27;20069;-69
2021/12/27 01:29:29;;;;;;;16.58;7.00;;;;;;;21.11;35.38;100860.06;2120822;27;20528;-68
2021/12/27 01:30:38;;;;;;;13.95;6.70;;;;;;;21.10;35.45;100861.22;2120787;27;20840;-69
2021/12/27 01:31:42;;;;;;;11.68;7.07;;;;;;;21.11;35.48;100862.00;2120504;27;20074;-68
2021/12/27 01:32:49;;;;;;;10.55;6.88;;;;;;;21.11;35.48;100859.25;2119895;27;20047;-68
2021/12/27 01:33:54;;;;;;;11.93;7.25;;;;;;;21.10;35.48;100861.22;2119078;27;20411;-68
2021/12/27 01:34:57;;;;;;;11.60;6.97;;;;;;;21.11;35.58;100865.56;2119846;27;20766;-68
2021/12/27 01:36:05;;;;;;;10.27;6.85;;;;;;;21.10;35.51;100872.22;2120518;27;20062;-68
2021/12/27 01:37:08;;;;;;;11.65;6.78;;;;;;;21.11;35.58;100870.25;2120205;27;20046;-68
2021/12/27 01:38:15;;;;;;;11.82;7.40;;;;;;;21.11;35.46;100865.56;2120479;27;20463;-68
2021/12/27 01:39:19;;;;;;;10.55;7.20;;;;;;;21.10;35.42;100869.47;2120318;27;20043;-68
2021/12/27 01:40:29;;;;;;;17.35;7.97;;;;;;;21.11;35.53;100864.75;2120283;27;20054;-68
2021/12/27 01:41:35;;;;;;;9.73;6.40;;;;;;;21.10;35.46;100869.47;2120250;27;20055;-68
2021/12/27 01:42:53;;;;;;;9.52;6.40;;;;;;;21.11;35.45;100873.78;2119928;27;20065;-69
2021/12/27 01:43:58;;;;;;;10.88;6.60;;;;;;;21.10;35.51;100872.22;2119633;27;20055;-69
2021/12/27 01:45:03;;;;;;;9.43;6.22;;;;;;;21.07;35.55;100864.69;2120380;27;20046;-69
2021/12/27 01:46:11;;;;;;;10.32;6.65;;;;;;;21.10;35.46;100866.72;2119965;27;20039;-68
2021/12/27 01:47:14;;;;;;;9.07;6.57;;;;;;;21.10;35.45;100868.69;2119978;27;20383;-69
2021/12/27 01:48:21;;;;;;;9.15;6.55;;;;;;;21.10;35.54;100869.47;2120362;27;20043;-68
2021/12/27 01:49:28;;;;;;;10.55;6.22;;;;;;;21.10;35.48;100869.47;2120071;27;20100;-68
2021/12/27 01:50:32;;;;;;;9.57;6.28;;;;;;;21.09;35.54;100867.09;2119806;27;20058;-71
2021/12/27 01:51:39;;;;;;;10.98;6.80;;;;;;;21.09;35.48;100870.63;2120628;27;20039;-71
2021/12/27 01:52:42;;;;;;;9.63;6.63;;;;;;;21.10;35.56;100869.47;2120518;27;20498;-71
2021/12/27 01:53:48;;;;;;;10.43;6.65;;;;;;;21.10;35.50;100871.41;2120151;27;20047;-71
2021/12/27 01:54:52;;;;;;;8.38;6.20;;;;;;;21.09;35.50;100875.34;2119963;27;20047;-71
2021/12/27 01:55:59;;;;;;;9.73;5.80;;;;;;;21.08;35.87;100877.25;2119262;27;20047;-71
2021/12/27 01:57:03;;;;;;;12.93;6.22;;;;;;;21.09;35.63;100876.13;2119411;27;20063;-72
2021/12/27 01:58:09;;;;;;;10.65;5.85;;;;;;;21.07;35.59;100867.44;2120052;27;20047;-74
2021/12/27 01:59:14;;;;;;;11.95;6.30;;;;;;;21.09;35.65;100867.09;2120073;27;20055;-74
2021/12/27 02:00:19;;;;;;;9.10;6.18;;;;;;;20.95;35.67;100851.91;2120243;27;20089;-75
2021/12/27 02:01:25;;;;;;;11.75;5.65;;;;;;;21.08;35.57;100865.47;2120427;27;20055;-74
2021/12/27 02:02:28;;;;;;;9.30;6.20;;;;;;;21.06;35.64;100874.09;2119428;27;20513;-75
2021/12/27 02:03:35;;;;;;;10.65;5.80;;;;;;;21.07;35.61;100877.63;2118534;27;20651;-75
2021/12/27 02:04:38;;;;;;;9.15;5.63;;;;;;;21.05;35.57;100872.50;2119945;27;20540;-74
2021/12/27 02:05:44;;;;;;;9.18;5.90;;;;;;;21.03;35.70;100875.63;2120205;27;20654;-74
2021/12/27 02:06:47;;;;;;;9.80;6.03;;;;;;;21.05;35.59;100883.47;2119490;27;20047;-72
2021/12/27 02:07:51;;;;;;;9.45;6.47;;;;;;;21.03;35.83;100880.31;2118781;27;20043;-70
2021/12/27 02:08:55;;;;;;;11.88;5.53;;;;;;;21.02;35.67;100879.53;2119919;27;20043;-72
2021/12/27 02:10:02;;;;;;;11.07;5.90;;;;;;;21.03;35.68;100875.63;2120333;27;20051;-71
2021/12/27 02:11:07;;;;;;;9.15;5.63;;;;;;;21.02;35.76;100867.72;2120475;27;20051;-72
2021/12/27 02:12:13;;;;;;;8.38;5.65;;;;;;;21.03;35.82;100869.34;2120528;27;20062;-71
2021/12/27 02:13:18;;;;;;;7.80;5.82;;;;;;;21.02;35.76;100874.03;2120388;27;20039;-71
2021/12/27 02:14:24;;;;;;;8.93;5.68;;;;;;;20.91;35.76;100850.25;2119571;27;20051;-70
2021/12/27 02:15:27;;;;;;;8.32;5.50;;;;;;;21.01;35.76;100871.63;2119181;27;20051;-70
2021/12/27 02:16:32;;;;;;;9.50;5.35;;;;;;;21.01;35.98;100869.69;2119058;27;20148;-65
2021/12/27 02:17:37;;;;;;;8.15;5.45;;;;;;;21.01;35.79;100872.44;2119906;27;20051;-66
2021/12/27 02:18:44;;;;;;;9.82;5.63;;;;;;;21.01;35.96;100868.88;2119333;27;20398;-66
2021/12/27 02:19:49;;;;;;;9.40;5.15;;;;;;;21.01;35.85;100866.94;2118971;27;20047;-67
2021/12/27 02:20:55;;;;;;;7.00;5.40;;;;;;;21.01;35.77;100866.94;2119241;27;20047;-67
2021/12/27 02:22:00;;;;;;;8.43;5.60;;;;;;;21.00;35.83;100867.31;2120031;27;20676;-67
2021/12/27 02:23:11;;;;;;;8.95;5.30;;;;;;;21.00;35.91;100864.56;2120281;27;20494;-67
2021/12/27 02:24:16;;;;;;;8.20;5.63;;;;;;;20.98;35.94;100867.66;2119824;27;20059;-66
2021/12/27 02:25:20;;;;;;;8.43;5.43;;;;;;;20.92;35.98;100857.31;2120440;27;20043;-67
2021/12/27 02:26:26;;;;;;;9.27;5.10;;;;;;;20.98;35.88;100864.13;2119959;27;20047;-67
2021/12/27 02:27:30;;;;;;;7.75;5.00;;;;;;;20.98;35.86;100866.88;2120188;27;20073;-65
2021/12/27 02:28:36;;;;;;;7.40;5.03;;;;;;;20.97;35.91;100865.28;2119730;27;20059;-66
2021/12/27 02:29:39;;;;;;;8.90;5.10;;;;;;;20.97;36.06;100865.28;2119424;27;20056;-68
2021/12/27 02:30:45;;;;;;;7.07;5.05;;;;;;;20.96;35.96;100871.91;2120154;27;20047;-68
2021/12/27 02:31:51;;;;;;;7.85;5.07;;;;;;;20.95;36.05;100867.59;2119647;27;20051;-68
2021/12/27 02:32:57;;;;;;;6.53;4.68;;;;;;;20.94;36.16;100860.50;2120267;27;20047;-67
2021/12/27 02:34:01;;;;;;;8.48;5.07;;;;;;;20.94;36.01;100866.81;2120250;27;20047;-67
2021/12/27 02:35:13;;;;;;;8.45;5.05;;;;;;;20.94;36.05;100871.50;2119609;27;20503;-67
2021/12/27 02:36:19;;;;;;;7.75;4.95;;;;;;;20.95;36.07;100873.09;2120380;27;20051;-67
2021/12/27 02:37:23;;;;;;;7.18;4.80;;;;;;;20.94;36.09;100871.50;2119425;27;20054;-67
2021/12/27 02:38:32;;;;;;;8.27;5.00;;;;;;;20.92;36.06;100862.81;2119679;27;20062;-68
2021/12/27 02:39:36;;;;;;;7.25;4.80;;;;;;;20.91;36.12;100864.00;2119478;27;20055;-68
2021/12/27 02:40:43;;;;;;;9.88;4.70;;;;;;;20.94;36.20;100868.75;2119650;27;20055;-68
2021/12/27 02:41:47;;;;;;;7.75;5.07;;;;;;;20.87;36.20;100857.63;2119255;27;20591;-66
2021/12/27 02:43:18;;;;;;;10.43;5.07;;;;;;;20.94;36.26;100863.25;2119731;27;20073;-67
2021/12/27 02:44:22;;;;;;;7.00;4.55;;;;;;;20.93;36.30;100856.97;2118847;27;20070;-66
2021/12/27 02:45:28;;;;;;;9.10;4.70;;;;;;;20.74;32.44;100863.25;2119308;27;20050;-67
2021/12/27 02:46:31;;;;;;;11.57;4.65;;;;;;;20.50;33.31;100860.75;2120268;27;20568;-67
2021/12/27 02:47:38;;;;;;;7.20;5.10;;;;;;;20.23;32.85;100862.47;2120439;27;20117;-68
2021/12/27 02:48:46;;;;;;;7.32;4.93;;;;;;;19.95;33.07;100862.59;2120440;27;20047;-66
2021/12/27 02:49:50;;;;;;;7.33;4.67;;;;;;;19.68;33.30;100865.06;2119900;27;20055;-68
2021/12/27 02:50:58;;;;;;;6.70;4.85;;;;;;;19.46;33.31;100866.47;2119608;27;20297;-65
2021/12/27 02:52:04;;;;;;;6.97;4.93;;;;;;;19.25;33.65;100872.16;2119963;27;20510;-66
2021/12/27 02:53:12;;;;;;;8.98;4.88;;;;;;;19.03;33.69;100876.22;2119732;27;20043;-66
2021/12/27 02:54:18;;;;;;;7.03;4.78;;;;;;;18.88;33.61;100869.56;2119159;27;20720;-66
2021/12/27 02:55:23;;;;;;;8.00;4.47;;;;;;;18.61;33.99;100862.91;2119623;27;20525;-66
2021/12/27 02:56:29;;;;;;;6.88;4.60;;;;;;;18.44;34.26;100869.44;2119781;27;20043;-67
2021/12/27 02:57:33;;;;;;;8.52;4.72;;;;;;;18.31;34.42;100873.28;2119211;27;20062;-66
2021/12/27 02:58:39;;;;;;;9.10;5.55;;;;;;;18.18;34.94;100877.16;2119454;27;20059;-67
2021/12/27 02:59:43;;;;;;;6.45;4.63;;;;;;;18.04;34.67;100875.56;2119109;27;20059;-67
2021/12/27 03:00:53;;;;;;;6.75;4.50;;;;;;;17.99;35.22;100875.00;2119493;27;20047;-68
2021/12/27 03:01:57;;;;;;;13.13;4.95;;;;;;;17.84;34.18;100876.50;2119511;27;20043;-67
2021/12/27 03:03:02;;;;;;;8.30;4.85;;;;;;;17.70;34.25;100878.72;2119597;27;20051;-71
2021/12/27 03:04:07;;;;;;;7.50;4.90;;;;;;;17.58;34.31;100877.56;2119946;27;20051;-72
2021/12/27 03:05:11;;;;;;;8.45;5.88;;;;;;;17.52;34.81;100876.22;2120139;27;20067;-71
2021/12/27 03:06:21;;;;;;;9.05;5.28;;;;;;;17.51;35.13;100879.22;2119992;27;20509;-70
2021/12/27 03:07:24;;;;;;;10.10;5.63;;;;;;;17.43;34.66;100875.47;2120176;27;20055;-70
2021/12/27 03:08:31;;;;;;;8.35;4.95;;;;;;;17.38;34.55;100881.13;2119395;27;20062;-70
2021/12/27 03:09:37;;;;;;;8.98;5.57;;;;;;;17.27;34.86;100869.03;2119092;27;20066;-71
2021/12/27 03:12:11;;;;;;;7.03;5.00;;;;;;;17.12;35.36;100871.25;2111862;28;20052;-68
2021/12/27 03:13:17;;;;;;;8.55;5.05;;;;;;;17.08;34.93;100872.25;2111355;28;20071;-68
2021/12/27 03:14:23;;;;;;;7.53;4.90;;;;;;;17.13;35.34;100874.78;2110217;28;20055;-69
2021/12/27 03:15:27;;;;;;;7.68;5.03;;;;;;;17.09;34.45;100871.94;2111443;28;20046;-69
2021/12/27 03:16:32;;;;;;;9.50;4.95;;;;;;;17.03;35.07;100865.06;2111656;28;20058;-69
2021/12/27 03:17:36;;;;;;;8.25;5.10;;;;;;;17.01;34.50;100878.25;2110958;28;20059;-71
2021/12/27 03:18:45;;;;;;;8.80;5.45;;;;;;;16.90;34.63;100866.16;2111457;28;20070;-72
2021/12/27 03:19:51;;;;;;;8.02;5.03;;;;;;;16.97;35.40;100865.63;2111557;28;20051;-70
2021/12/27 03:20:57;;;;;;;8.13;5.07;;;;;;;16.96;34.90;100873.00;2111291;28;20066;-73
2021/12/27 03:22:04;;;;;;;6.60;4.50;;;;;;;16.90;34.60;100869.69;2111045;28;20048;-73
2021/12/27 03:23:08;;;;;;;8.20;4.72;;;;;;;16.87;34.91;100867.63;2111784;28;20051;-74
2021/12/27 03:24:15;;;;;;;7.20;4.75;;;;;;;16.82;34.81;100870.53;2110928;28;20060;-73
2021/12/27 03:25:22;;;;;;;9.35;4.60;;;;;;;16.83;34.78;100868.59;2111807;28;20059;-69
2021/12/27 03:26:31;;;;;;;7.90;4.43;;;;;;;16.76;35.41;100871.88;2111682;27;20056;-69
2021/12/27 03:27:35;;;;;;;8.60;4.45;;;;;;;16.72;35.28;100861.97;2111190;28;20102;-69
2021/12/27 03:28:40;;;;;;;8.55;4.78;;;;;;;16.61;34.79;100867.00;2111563;28;20051;-66
2021/12/27 03:29:44;;;;;;;7.18;4.22;;;;;;;16.57;35.05;100868.78;2111033;28;20051;-67
2021/12/27 03:30:49;;;;;;;8.10;4.40;;;;;;;16.57;35.27;100866.84;2111080;28;20058;-66
2021/12/27 03:31:55;;;;;;;8.40;4.88;;;;;;;16.53;34.59;100876.03;2110468;28;20051;-67
2021/12/27 03:32:59;;;;;;;7.63;4.47;;;;;;;16.46;35.09;100862.94;2110765;28;20534;-66
2021/12/27 03:34:02;;;;;;;9.10;4.43;;;;;;;16.41;34.89;100866.63;2111210;28;20059;-66
2021/12/27 03:35:13;;;;;;;7.28;4.32;;;;;;;16.37;34.72;100865.69;2118705;27;20043;-66
2021/12/27 03:36:15;;;;;;;6.60;4.00;;;;;;;16.34;34.94;100871.03;2117531;27;20046;-67
2021/12/27 03:37:22;;;;;;;8.30;4.70;;;;;;;16.33;34.73;100874.88;2111553;28;20394;-67
2021/12/27 03:38:27;;;;;;;7.95;4.50;;;;;;;16.33;34.91;100863.97;2111306;28;20055;-67
2021/12/27 03:39:33;;;;;;;8.15;3.95;;;;;;;16.32;35.08;100856.91;2111786;28;20060;-68
2021/12/27 03:40:38;;;;;;;7.43;4.22;;;;;;;16.41;34.61;100860.38;2111342;28;20106;-69
2021/12/27 03:41:46;;;;;;;7.47;4.55;;;;;;;16.44;34.73;100865.19;2111344;28;20048;-69
2021/12/27 03:42:50;;;;;;;7.72;4.63;;;;;;;16.50;34.98;100863.84;2110584;28;20063;-70
2021/12/27 03:43:57;;;;;;;11.65;4.10;;;;;;;16.52;34.65;100861.59;2111195;28;20051;-72
2021/12/27 03:45:00;;;;;;;7.70;4.38;;;;;;;16.56;34.56;100859.81;2117545;27;20055;-72
2021/12/27 03:46:06;;;;;;;7.40;4.43;;;;;;;16.58;34.88;100865.72;2111617;28;20054;-71
2021/12/27 03:47:09;;;;;;;6.95;4.47;;;;;;;16.61;34.35;100862.34;2111548;28;20328;-72
2021/12/27 03:48:17;;;;;;;9.23;4.32;;;;;;;16.64;34.25;100864.44;2111231;28;20050;-72
2021/12/27 03:49:21;;;;;;;8.10;4.65;;;;;;;16.66;34.13;100859.44;2111152;28;20522;-74
2021/12/27 03:50:27;;;;;;;6.25;4.28;;;;;;;16.65;34.14;100859.78;2110774;28;20048;-72
2021/12/27 03:51:33;;;;;;;7.45;4.40;;;;;;;16.64;34.04;100864.44;2110975;28;20056;-72
2021/12/27 03:52:40;;;;;;;8.15;4.47;;;;;;;16.64;34.14;100861.72;2110578;28;20485;-73
2021/12/27 03:53:48;;;;;;;7.60;4.18;;;;;;;16.64;34.36;100858.97;2111202;28;20059;-73
2021/12/27 03:54:52;;;;;;;7.10;4.22;;;;;;;16.67;34.41;100862.94;2111379;28;20044;-74
2021/12/27 03:55:59;;;;;;;7.57;4.00;;;;;;;16.67;34.32;100852.88;2111841;28;20062;-73
2021/12/27 03:57:02;;;;;;;8.13;4.47;;;;;;;16.69;34.01;100860.69;2111811;28;20051;-72
2021/12/27 03:58:22;;;;;;;6.10;4.10;;;;;;;16.68;33.93;100854.44;2111752;28;20078;-72
2021/12/27 03:59:37;;;;;;;7.05;4.05;;;;;;;16.64;33.90;100853.53;2111109;28;20059;-71
2021/12/27 04:00:49;;;;;;;7.53;4.15;;;;;;;16.64;34.11;100858.97;2110179;28;20048;-73
2021/12/27 04:01:53;;;;;;;7.50;4.53;;;;;;;16.63;33.78;100862.78;2110627;28;20059;-73
2021/12/27 04:03:00;;;;;;;5.75;3.80;;;;;;;16.62;33.85;100865.88;2110537;28;20048;-73
2021/12/27 04:04:07;;;;;;;6.45;4.05;;;;;;;16.62;33.64;100861.19;2111393;28;20044;-73
2021/12/27 04:05:10;;;;;;;6.75;4.03;;;;;;;16.59;33.62;100863.81;2110385;28;20051;-73
2021/12/27 04:06:19;;;;;;;6.32;3.95;;;;;;;16.59;33.69;100867.31;2109930;28;20040;-72
2021/12/27 04:07:27;;;;;;;7.13;4.40;;;;;;;16.56;33.70;100867.19;2111139;28;20047;-73
2021/12/27 04:08:35;;;;;;;6.70;4.35;;;;;;;16.56;34.02;100861.75;2111068;28;20043;-69
2021/12/27 04:09:59;;;;;;;8.55;4.55;;;;;;;16.57;33.53;100863.31;2110605;28;20320;-68
2021/12/27 04:11:04;;;;;;;5.82;3.92;;;;;;;16.48;33.70;100844.28;2111027;28;20096;-73
2021/12/27 04:12:10;;;;;;;6.70;4.00;;;;;;;16.50;33.35;100863.84;2111457;28;20055;-70
2021/12/27 04:13:18;;;;;;;6.50;4.03;;;;;;;16.46;33.89;100871.09;2111347;28;20039;-70
2021/12/27 04:14:23;;;;;;;6.13;4.25;;;;;;;16.37;33.67;100868.44;2111527;28;20047;-68
2021/12/27 04:15:27;;;;;;;8.00;4.30;;;;;;;16.30;34.47;100870.09;2111244;28;20499;-75
2021/12/27 04:16:32;;;;;;;7.05;4.50;;;;;;;16.34;34.24;100866.34;2110795;28;20423;-71
2021/12/27 04:17:36;;;;;;;9.40;4.78;;;;;;;16.35;33.82;100869.88;2111299;28;20036;-71
2021/12/27 04:18:41;;;;;;;7.72;4.50;;;;;;;16.31;34.19;100861.56;2111510;28;20039;-70
2021/12/27 04:19:48;;;;;;;9.55;4.70;;;;;;;16.37;34.14;100873.09;2111419;28;20067;-71
2021/12/27 04:20:52;;;;;;;8.38;4.90;;;;;;;16.40;34.19;100870.50;2110490;28;20048;-73
2021/12/27 04:21:56;;;;;;;8.82;4.70;;;;;;;16.41;33.65;100865.84;2110040;28;20056;-71
2021/12/27 04:23:01;;;;;;;7.70;4.60;;;;;;;16.39;33.78;100868.91;2110881;28;20040;-70
2021/12/27 04:24:10;;;;;;;8.02;4.80;;;;;;;16.40;33.95;100870.50;2110558;28;20126;-72
2021/12/27 04:25:15;;;;;;;8.05;5.22;;;;;;;16.41;33.73;100871.28;2111038;28;20047;-72
2021/12/27 04:26:22;;;;;;;7.43;4.85;;;;;;;16.40;33.75;100870.50;2110951;28;20511;-72
2021/12/27 04:27:26;;;;;;;11.40;5.38;;;;;;;16.40;33.83;100865.03;2111080;28;20484;-75
2021/12/27 04:28:31;;;;;;;9.00;4.88;;;;;;;16.45;33.97;100873.03;2111233;28;20058;-76
2021/12/27 04:29:35;;;;;;;8.02;4.65;;;;;;;16.47;34.04;100871.91;2110338;28;20047;-77
2021/12/27 04:30:40;;;;;;;7.18;4.55;;;;;;;16.47;34.20;100871.91;2110837;28;20055;-75
2021/12/27 04:31:46;;;;;;;7.32;4.18;;;;;;;16.47;33.92;100871.91;2109969;28;20063;-76
2021/12/27 04:32:52;;;;;;;8.43;5.28;;;;;;;16.45;33.89;100873.03;2110323;28;20057;-76
2021/12/27 04:33:56;;;;;;;8.05;4.78;;;;;;;16.44;34.20;100874.16;2111588;28;20055;-76
2021/12/27 04:35:04;;;;;;;9.25;4.97;;;;;;;16.47;34.40;100871.91;2111184;28;20055;-76
2021/12/27 04:36:10;;;;;;;8.90;5.70;;;;;;;16.46;34.04;100879.28;2111313;28;20052;-75
2021/12/27 04:37:16;;;;;;;6.43;4.65;;;;;;;16.40;34.16;100873.22;2111291;28;20073;-77
2021/12/27 04:38:21;;;;;;;8.35;4.72;;;;;;;16.44;33.83;100876.09;2111030;28;20047;-73
2021/12/27 04:39:27;;;;;;;9.85;5.18;;;;;;;16.46;34.07;100879.28;2111277;28;20059;-74
2021/12/27 04:40:37;;;;;;;9.75;4.90;;;;;;;16.47;34.26;100880.09;2112896;28;20048;-73
2021/12/27 04:41:42;;;;;;;9.23;5.55;;;;;;;16.47;34.33;100875.41;2111723;28;20052;-72
2021/12/27 04:42:49;;;;;;;8.07;5.20;;;;;;;16.34;34.15;100863.63;2112593;28;20059;-74
2021/12/27 04:43:55;;;;;;;9.40;5.13;;;;;;;16.46;34.04;100882.00;2112655;28;20048;-74
2021/12/27 04:44:58;;;;;;;8.68;4.78;;;;;;;16.44;34.39;100874.16;2112523;28;20054;-74
2021/12/27 04:47:24;;;;;;;7.80;5.35;;;;;;;16.43;34.30;100879.94;2111590;28;20052;-74
2021/12/27 04:48:30;;;;;;;9.02;5.80;;;;;;;16.40;34.03;100880.59;2112113;28;20047;-73
2021/12/27 04:49:34;;;;;;;8.68;5.40;;;;;;;16.34;34.14;100877.25;2112483;28;20380;-74
2021/12/27 04:50:39;;;;;;;8.60;4.88;;;;;;;16.35;34.10;100880.78;2113015;28;20063;-74
2021/12/27 04:51:47;;;;;;;9.13;5.60;;;;;;;16.34;33.94;100881.94;2113229;28;20055;-75
2021/12/27 04:52:58;;;;;;;11.60;5.45;;;;;;;16.31;34.29;100879.84;2112590;28;20415;-73
2021/12/27 04:54:08;;;;;;;12.45;5.40;;;;;;;16.31;33.93;100877.13;2112163;28;20411;-73
2021/12/27 04:55:17;;;;;;;7.97;5.35;;;;;;;16.29;34.27;100874.72;2112897;28;20047;-73
2021/12/27 04:56:24;;;;;;;9.23;5.70;;;;;;;16.25;33.45;100867.53;2111707;28;20043;-74
2021/12/27 04:57:28;;;;;;;10.75;5.50;;;;;;;16.24;34.15;100874.13;2112006;28;20529;-72
2021/12/27 04:58:33;;;;;;;12.38;4.88;;;;;;;16.23;34.15;100876.06;2116915;27;20055;-72
2021/12/27 04:59:39;;;;;;;11.40;5.32;;;;;;;16.22;33.84;100871.72;2120523;27;20047;-70
2021/12/27 05:02:07;;;;;;;9.57;5.00;;;;;;;16.16;34.19;100873.03;2120380;27;20077;-69
2021/12/27 05:03:10;;;;;;;8.25;4.93;;;;;;;16.11;33.95;100873.22;2121199;27;20047;-72
2021/12/27 05:04:19;;;;;;;7.93;5.28;;;;;;;16.10;33.95;100872.41;2120966;27;20054;-72
2021/12/27 05:05:27;;;;;;;7.93;5.03;;;;;;;16.10;34.17;100875.13;2112268;27;20055;-72
2021/12/27 05:06:31;;;;;;;9.93;5.55;;;;;;;16.09;33.99;100865.38;2112487;28;20343;-69
2021/12/27 05:07:42;;;;;;;7.82;4.65;;;;;;;16.07;35.60;100873.06;2121799;27;20055;-67
2021/12/27 05:08:48;;;;;;;6.22;4.13;;;;;;;16.24;36.58;100871.41;2120657;27;20054;-67
2021/12/27 05:09:53;;;;;;;7.32;4.38;;;;;;;16.38;36.73;100872.75;2120427;27;20047;-67
2021/12/27 05:11:02;;;;;;;5.97;4.05;;;;;;;16.52;36.75;100872.50;2119404;27;20039;-66
2021/12/27 05:12:08;;;;;;;6.20;4.00;;;;;;;16.63;36.84;100868.25;2117998;27;20402;-65